createdAt,value
2022-07-27T00:00:58.612Z,13.66
2022-07-27T00:04:20.027Z,13.60
2022-07-27T00:07:31.412Z,13.47
2022-07-27T00:10:38.357Z,13.40
2022-07-27T00:13:45.306Z,13.39
2022-07-27T00:16:50.989Z,13.51
2022-07-27T00:19:56.760Z,13.60
2022-07-27T00:23:14.309Z,13.61
2022-07-27T00:26:20.381Z,13.70
2022-07-27T00:29:29.224Z,13.66
2022-07-27T00:32:34.820Z,13.80
2022-07-27T00:35:41.166Z,13.85
2022-07-27T00:38:49.348Z,13.79
2022-07-27T00:41:54.972Z,13.73
2022-07-27T00:45:01.132Z,13.64
2022-07-27T00:48:09.637Z,13.68
2022-07-27T00:51:16.275Z,13.67
2022-07-27T00:54:29.092Z,13.79
2022-07-27T00:57:57.957Z,13.89
2022-07-27T01:01:14.712Z,13.79
2022-07-27T01:04:20.314Z,13.90
2022-07-27T01:07:32.248Z,13.87
2022-07-27T01:10:41.873Z,13.83
2022-07-27T01:13:47.552Z,13.82
2022-07-27T01:16:54.544Z,13.79
2022-07-27T01:20:01.740Z,13.77
2022-07-27T01:23:09.961Z,13.76
2022-07-27T01:26:15.527Z,13.78
2022-07-27T01:29:24.335Z,13.82
2022-07-27T01:32:29.875Z,13.80
2022-07-27T01:35:39.341Z,13.79
2022-07-27T01:38:47.613Z,13.80
2022-07-27T01:41:59.876Z,13.74
2022-07-27T01:45:22.466Z,13.67
2022-07-27T01:48:31.643Z,13.72
2022-07-27T01:51:37.471Z,13.77
2022-07-27T01:54:45.798Z,13.78
2022-07-27T01:57:51.403Z,13.76
2022-07-27T02:00:57.337Z,13.76
2022-07-27T02:04:04.728Z,13.69
2022-07-27T02:07:10.473Z,13.73
2022-07-27T02:10:18.669Z,13.73
2022-07-27T02:13:39.971Z,13.64
2022-07-27T02:16:47.702Z,13.63
2022-07-27T02:19:53.373Z,13.63
2022-07-27T02:22:58.967Z,13.63
2022-07-27T02:26:09.708Z,13.63
2022-07-27T02:29:15.708Z,13.66
2022-07-27T02:32:21.338Z,13.56
2022-07-27T02:35:27.328Z,13.43
2022-07-27T02:38:38.905Z,13.45
2022-07-27T02:41:48.868Z,13.44
2022-07-27T02:44:56.422Z,13.41
2022-07-27T02:48:04.898Z,13.43
2022-07-27T02:51:15.337Z,13.37
2022-07-27T02:54:22.034Z,13.40
2022-07-27T02:57:35.959Z,13.41
2022-07-27T03:00:41.693Z,13.40
2022-07-27T03:03:53.279Z,13.42
2022-07-27T03:06:58.819Z,13.42
2022-07-27T03:10:11.683Z,13.38
2022-07-27T03:13:19.850Z,13.48
2022-07-27T03:16:26.082Z,13.48
2022-07-27T03:19:31.902Z,13.54
2022-07-27T03:22:37.649Z,13.53
2022-07-27T03:25:43.458Z,13.49
2022-07-27T03:28:51.666Z,13.44
2022-07-27T03:31:57.165Z,13.44
2022-07-27T03:35:08.945Z,13.54
2022-07-27T03:38:20.473Z,13.64
2022-07-27T03:41:26.082Z,13.69
2022-07-27T03:44:34.297Z,13.75
2022-07-27T03:47:40.205Z,13.85
2022-07-27T03:50:47.708Z,13.92
2022-07-27T03:53:53.296Z,13.92
2022-07-27T03:57:00.148Z,13.85
2022-07-27T04:00:29.073Z,14.03
2022-07-27T04:03:34.578Z,14.07
2022-07-27T04:06:40.185Z,14.02
2022-07-27T04:09:46.631Z,14.05
2022-07-27T04:12:56.109Z,14.07
2022-07-27T04:16:04.749Z,14.19
2022-07-27T04:19:11.115Z,14.25
2022-07-27T04:22:16.945Z,14.24
2022-07-27T04:25:22.565Z,14.30
2022-07-27T04:28:28.502Z,14.34
2022-07-27T04:31:36.988Z,14.45
2022-07-27T04:34:42.508Z,14.58
2022-07-27T04:37:59.053Z,14.60
2022-07-27T04:41:05.232Z,14.62
2022-07-27T04:44:10.802Z,14.70
2022-07-27T04:47:19.268Z,14.85
2022-07-27T04:50:25.464Z,14.87
2022-07-27T04:53:31.647Z,15.04
2022-07-27T04:56:37.410Z,15.33
2022-07-27T04:59:42.998Z,15.65
2022-07-27T05:02:51.190Z,15.84
2022-07-27T05:05:57.358Z,16.57
2022-07-27T05:09:09.180Z,17.23
2022-07-27T05:12:15.325Z,17.08
2022-07-27T05:15:21.635Z,17.56
2022-07-27T05:18:29.907Z,18.03
2022-07-27T05:21:35.976Z,18.57
2022-07-27T05:24:41.566Z,19.37
2022-07-27T05:27:51.045Z,19.51
2022-07-27T05:31:00.506Z,19.78
2022-07-27T05:34:08.606Z,20.12
2022-07-27T05:37:14.322Z,19.81
2022-07-27T05:40:19.992Z,19.97
2022-07-27T05:43:25.540Z,19.58
2022-07-27T05:46:33.423Z,19.14
2022-07-27T05:49:41.657Z,19.12
2022-07-27T05:52:47.791Z,18.81
2022-07-27T05:55:58.911Z,18.46
2022-07-27T05:59:08.852Z,18.77
2022-07-27T06:02:14.753Z,20.02
2022-07-27T06:05:22.976Z,20.27
2022-07-27T06:08:25.950Z,20.10
2022-07-27T06:11:31.682Z,20.93
2022-07-27T06:14:37.941Z,21.81
2022-07-27T06:17:44.301Z,21.77
2022-07-27T06:20:55.613Z,20.97
2022-07-27T06:24:01.547Z,20.46
2022-07-27T06:27:07.590Z,20.56
2022-07-27T06:30:16.337Z,20.34
2022-07-27T06:33:28.970Z,20.14
2022-07-27T06:36:40.069Z,20.13
2022-07-27T06:39:46.822Z,20.07
2022-07-27T06:42:52.594Z,19.55
2022-07-27T06:45:58.496Z,19.37
2022-07-27T06:49:04.079Z,19.59
2022-07-27T06:52:12.306Z,19.43
2022-07-27T06:55:17.941Z,18.63
2022-07-27T06:58:23.529Z,17.72
2022-07-27T07:01:29.231Z,17.40
2022-07-27T07:04:35.230Z,17.05
2022-07-27T07:07:47.608Z,17.03
2022-07-27T07:10:53.879Z,16.95
2022-07-27T07:13:59.472Z,16.83
2022-07-27T07:17:05.024Z,16.08
2022-07-27T07:20:12.750Z,15.70
2022-07-27T07:23:20.943Z,15.31
2022-07-27T07:26:26.490Z,15.31
2022-07-27T07:29:33.936Z,15.27
2022-07-27T07:32:39.521Z,15.42
2022-07-27T07:36:13.498Z,15.54
2022-07-27T07:39:20.201Z,15.65
2022-07-27T07:42:25.881Z,15.68
2022-07-27T07:45:33.619Z,15.85
2022-07-27T07:48:39.730Z,16.21
2022-07-27T07:51:48.029Z,16.20
2022-07-27T07:54:56.177Z,15.92
2022-07-27T07:58:05.288Z,15.79
2022-07-27T08:01:12.457Z,15.81
2022-07-27T08:04:18.305Z,15.73
2022-07-27T08:07:23.977Z,16.19
2022-07-27T08:10:32.554Z,15.86
2022-07-27T08:13:38.163Z,15.57
2022-07-27T08:16:48.480Z,16.30
2022-07-27T08:19:54.950Z,16.77
2022-07-27T08:23:00.823Z,17.98
2022-07-27T08:26:12.089Z,19.27
2022-07-27T08:29:17.916Z,19.16
2022-07-27T08:32:32.035Z,19.16
2022-07-27T08:35:38.675Z,19.23
2022-07-27T08:38:44.296Z,18.67
2022-07-27T08:41:58.200Z,19.00
2022-07-27T08:45:11.721Z,19.55
2022-07-27T08:48:25.191Z,19.43
2022-07-27T08:51:31.910Z,18.79
2022-07-27T08:54:39.489Z,17.90
2022-07-27T08:57:57.843Z,18.01
2022-07-27T09:01:16.266Z,18.42
2022-07-27T09:04:22.474Z,18.91
2022-07-27T09:07:32.428Z,18.98
2022-07-27T09:10:47.088Z,18.74
2022-07-27T09:14:07.864Z,18.24
2022-07-27T09:21:29.118Z,18.00
2022-07-27T09:25:08.057Z,18.50
2022-07-27T09:28:13.604Z,18.76
2022-07-27T09:31:25.395Z,18.79
2022-07-27T09:34:36.832Z,18.92
2022-07-27T09:37:42.547Z,19.52
2022-07-27T09:40:50.546Z,19.83
2022-07-27T09:44:31.322Z,20.12
2022-07-27T09:47:33.637Z,20.57
2022-07-27T09:50:53.044Z,20.88
2022-07-27T09:54:13.898Z,21.23
2022-07-27T09:57:27.514Z,21.53
2022-07-27T10:00:36.507Z,21.96
2022-07-27T10:03:46.186Z,22.32
2022-07-27T10:07:02.702Z,22.52
2022-07-27T10:10:30.172Z,22.08
2022-07-27T10:13:36.553Z,22.32
2022-07-27T10:16:53.897Z,22.83
2022-07-27T10:20:05.921Z,22.41
2022-07-27T10:23:11.912Z,22.58
2022-07-27T10:26:30.107Z,22.93
2022-07-27T10:29:35.796Z,22.17
2022-07-27T10:32:52.298Z,22.21
2022-07-27T10:36:02.494Z,22.79
2022-07-27T10:39:13.439Z,23.46
2022-07-27T10:42:34.187Z,24.08
2022-07-27T10:46:00.115Z,24.40
2022-07-27T10:49:21.929Z,24.34
2022-07-27T10:52:49.816Z,25.41
2022-07-27T10:55:55.882Z,25.98
2022-07-27T10:59:01.540Z,25.67
2022-07-27T11:02:15.404Z,25.62
2022-07-27T11:09:32.365Z,26.32
2022-07-27T11:12:33.247Z,26.61
2022-07-27T11:15:41.583Z,26.29
2022-07-27T11:19:08.174Z,26.43
2022-07-27T11:22:28.692Z,26.49
2022-07-27T11:25:43.636Z,26.86
2022-07-27T11:28:49.861Z,27.41
2022-07-27T11:32:08.825Z,27.65
2022-07-27T11:35:22.628Z,27.66
2022-07-27T11:38:49.218Z,27.89
2022-07-27T11:42:11.919Z,28.07
2022-07-27T11:45:35.910Z,27.31
2022-07-27T11:49:04.279Z,26.40
2022-07-27T11:52:15.398Z,26.44
2022-07-27T11:55:28.247Z,26.78
2022-07-27T11:59:07.971Z,26.36
2022-07-27T12:02:23.226Z,26.37
2022-07-27T12:05:28.919Z,26.85
2022-07-27T12:08:44.037Z,27.49
2022-07-27T12:12:03.577Z,27.11
2022-07-27T12:15:45.141Z,26.18
2022-07-27T12:18:51.314Z,25.81
2022-07-27T12:21:57.529Z,25.31
2022-07-27T12:25:41.577Z,25.05
2022-07-27T12:29:10.504Z,25.90
2022-07-27T12:32:19.264Z,26.46
2022-07-27T12:35:38.790Z,26.22
2022-07-27T12:38:56.055Z,26.65
2022-07-27T12:42:10.652Z,26.84
2022-07-27T12:45:24.219Z,26.55
2022-07-27T12:48:44.375Z,26.06
2022-07-27T12:51:49.951Z,26.39
2022-07-27T12:55:01.264Z,26.44
2022-07-27T12:58:14.391Z,26.46
2022-07-27T13:01:20.014Z,26.41
2022-07-27T13:04:28.283Z,26.13
2022-07-27T13:07:33.991Z,25.75
2022-07-27T13:10:44.732Z,25.79
2022-07-27T13:13:50.389Z,25.40
2022-07-27T13:16:55.956Z,24.73
2022-07-27T13:20:11.550Z,24.89
2022-07-27T13:23:17.205Z,24.63
2022-07-27T13:26:24.157Z,24.66
2022-07-27T13:29:33.372Z,24.43
2022-07-27T13:32:39.189Z,23.91
2022-07-27T13:36:00.522Z,23.86
2022-07-27T13:39:06.880Z,23.92
2022-07-27T13:42:12.578Z,24.01
2022-07-27T13:45:18.169Z,24.10
2022-07-27T13:48:26.000Z,24.18
2022-07-27T13:51:34.287Z,24.18
2022-07-27T13:54:39.845Z,24.54
2022-07-27T13:57:45.577Z,24.55
2022-07-27T14:00:54.730Z,24.62
2022-07-27T14:04:05.005Z,24.64
2022-07-27T14:07:14.747Z,24.84
2022-07-27T14:10:35.390Z,24.90
2022-07-27T14:13:41.175Z,25.19
2022-07-27T14:16:46.843Z,24.96
2022-07-27T14:19:52.537Z,25.00
2022-07-27T14:23:03.632Z,24.92
2022-07-27T14:26:12.222Z,24.67
2022-07-27T14:29:17.819Z,24.69
2022-07-27T14:32:23.303Z,24.70
2022-07-27T14:35:28.938Z,24.65
2022-07-27T14:38:40.668Z,24.74
2022-07-27T14:41:47.608Z,24.78
2022-07-27T14:44:53.100Z,24.41
2022-07-27T14:47:58.683Z,24.11
2022-07-27T14:51:05.105Z,24.23
2022-07-27T14:54:13.432Z,24.32
2022-07-27T14:57:19.973Z,24.23
2022-07-27T15:00:25.620Z,24.01
2022-07-27T15:03:31.304Z,23.83
2022-07-27T15:06:39.625Z,23.70
2022-07-27T15:09:47.877Z,23.62
2022-07-27T15:12:53.473Z,23.42
2022-07-27T15:16:10.073Z,23.26
2022-07-27T15:19:21.179Z,23.43
2022-07-27T15:22:26.802Z,23.57
2022-07-27T15:25:35.322Z,23.73
2022-07-27T15:28:41.035Z,23.83
2022-07-27T15:31:47.031Z,23.73
2022-07-27T15:34:53.826Z,23.67
2022-07-27T15:37:59.383Z,23.72
2022-07-27T15:41:08.274Z,23.57
2022-07-27T15:44:15.117Z,23.68
2022-07-27T15:47:22.075Z,23.68
2022-07-27T15:50:28.487Z,23.64
2022-07-27T15:53:34.114Z,23.51
2022-07-27T15:56:42.309Z,23.52
2022-07-27T15:59:47.848Z,23.50
2022-07-27T16:02:53.798Z,23.46
2022-07-27T16:06:05.282Z,23.50
2022-07-27T16:09:18.369Z,23.50
2022-07-27T16:12:28.769Z,23.30
2022-07-27T16:15:56.808Z,23.19
2022-07-27T16:19:12.841Z,23.27
2022-07-27T16:22:19.384Z,23.30
2022-07-27T16:25:45.863Z,23.42
2022-07-27T16:28:57.254Z,23.25
2022-07-27T16:32:03.077Z,23.10
2022-07-27T16:35:10.311Z,23.03
2022-07-27T16:38:20.853Z,22.95
2022-07-27T16:41:29.689Z,22.72
2022-07-27T16:44:50.003Z,22.48
2022-07-27T16:47:56.420Z,22.16
2022-07-27T16:51:02.781Z,22.13
2022-07-27T16:54:09.524Z,22.14
2022-07-27T16:57:15.054Z,22.04
2022-07-27T17:00:23.455Z,21.94
2022-07-27T17:03:29.204Z,21.76
2022-07-27T17:06:42.384Z,21.58
2022-07-27T17:09:54.234Z,21.40
2022-07-27T17:13:00.083Z,21.39
2022-07-27T17:16:11.215Z,21.32
2022-07-27T17:19:17.018Z,20.91
2022-07-27T17:22:38.019Z,21.05
2022-07-27T17:25:43.540Z,20.83
2022-07-27T17:28:50.410Z,20.64
2022-07-27T17:31:58.650Z,20.52
2022-07-27T17:35:04.283Z,20.27
2022-07-27T17:38:09.841Z,20.27
2022-07-27T17:41:21.786Z,20.23
2022-07-27T17:44:29.768Z,20.26
2022-07-27T17:47:50.691Z,19.98
2022-07-27T17:50:59.160Z,20.00
2022-07-27T17:54:07.908Z,19.87
2022-07-27T17:57:19.331Z,19.85
2022-07-27T18:00:40.460Z,19.72
2022-07-27T18:03:48.744Z,19.72
2022-07-27T18:07:00.042Z,19.65
2022-07-27T18:10:15.926Z,19.73
2022-07-27T18:13:23.204Z,19.72
2022-07-27T18:16:52.844Z,19.75
2022-07-27T18:20:00.953Z,19.49
2022-07-27T18:23:09.189Z,19.45
2022-07-27T18:26:15.245Z,19.28
2022-07-27T18:29:20.764Z,19.21
2022-07-27T18:32:46.422Z,19.14
2022-07-27T18:36:01.260Z,19.19
2022-07-27T18:39:06.936Z,19.22
2022-07-27T18:42:12.744Z,19.20
2022-07-27T18:45:18.500Z,19.26
2022-07-27T18:48:24.023Z,19.21
2022-07-27T18:51:32.436Z,19.17
2022-07-27T18:54:40.532Z,19.15
2022-07-27T18:57:46.510Z,19.10
2022-07-27T19:00:52.289Z,19.07
2022-07-27T19:04:00.533Z,19.04
2022-07-27T19:07:15.594Z,18.98
2022-07-27T19:10:24.053Z,18.98
2022-07-27T19:13:29.614Z,18.94
2022-07-27T19:16:35.987Z,18.94
2022-07-27T19:19:41.657Z,18.98
2022-07-27T19:22:50.292Z,18.97
2022-07-27T19:25:59.465Z,18.84
2022-07-27T19:29:05.053Z,18.72
2022-07-27T19:32:11.241Z,18.60
2022-07-27T19:35:16.810Z,18.58
2022-07-27T19:38:25.482Z,18.54
2022-07-27T19:41:31.156Z,18.53
2022-07-27T19:44:36.885Z,18.51
2022-07-27T19:47:42.443Z,18.49
2022-07-27T19:50:48.148Z,18.50
2022-07-27T19:53:57.100Z,18.57
2022-07-27T19:57:02.738Z,18.59
2022-07-27T20:00:11.443Z,18.57
2022-07-27T20:03:17.097Z,18.49
2022-07-27T20:06:22.712Z,18.44
2022-07-27T20:09:30.944Z,18.40
2022-07-27T20:12:37.108Z,18.41
2022-07-27T20:15:42.984Z,18.38
2022-07-27T20:18:49.603Z,18.28
2022-07-27T20:21:57.387Z,18.17
2022-07-27T20:25:05.572Z,18.11
2022-07-27T20:28:11.206Z,17.96
2022-07-27T20:31:17.427Z,18.06
2022-07-27T20:34:23.264Z,17.98
2022-07-27T20:37:30.206Z,17.94
2022-07-27T20:40:38.469Z,17.81
2022-07-27T20:43:43.932Z,17.66
2022-07-27T20:46:49.502Z,17.63
2022-07-27T20:49:55.049Z,17.51
2022-07-27T20:53:04.408Z,17.49
2022-07-27T20:56:12.637Z,17.37
2022-07-27T20:59:18.432Z,17.38
2022-07-27T21:02:24.413Z,17.20
2022-07-27T21:05:30.394Z,17.14
2022-07-27T21:08:44.358Z,17.19
2022-07-27T21:11:54.666Z,17.20
2022-07-27T21:15:00.243Z,17.16
2022-07-27T21:18:06.153Z,17.10
2022-07-27T21:21:11.711Z,17.09
2022-07-27T21:24:21.409Z,17.20
2022-07-27T21:27:30.177Z,17.15
2022-07-27T21:30:36.761Z,17.11
2022-07-27T21:33:42.366Z,17.10
2022-07-27T21:36:49.583Z,17.01
2022-07-27T21:39:55.089Z,17.03
2022-07-27T21:43:03.828Z,17.02
2022-07-27T21:46:09.495Z,16.89
2022-07-27T21:49:15.857Z,16.84
2022-07-27T21:52:21.544Z,16.94
2022-07-27T21:55:27.347Z,16.94
2022-07-27T21:58:35.579Z,16.99
2022-07-27T22:01:41.292Z,16.94
2022-07-27T22:04:46.947Z,16.85
2022-07-27T22:08:08.275Z,16.86
2022-07-27T22:11:20.674Z,16.88
2022-07-27T22:14:31.455Z,16.92
2022-07-27T22:17:49.846Z,16.95
2022-07-27T22:20:56.548Z,16.85
2022-07-27T22:24:02.113Z,16.84
2022-07-27T22:27:08.770Z,16.91
2022-07-27T22:30:18.243Z,16.86
2022-07-27T22:33:23.816Z,16.81
2022-07-27T22:36:29.438Z,16.75
2022-07-27T22:39:35.097Z,16.72
2022-07-27T22:42:42.157Z,16.65
2022-07-27T22:45:53.677Z,16.61
2022-07-27T22:48:59.444Z,16.61
2022-07-27T22:52:05.833Z,16.58
2022-07-27T22:55:12.372Z,16.54
2022-07-27T22:58:17.925Z,16.60
2022-07-27T23:01:46.719Z,16.61
2022-07-27T23:04:51.990Z,16.62
2022-07-27T23:07:57.630Z,16.51
2022-07-27T23:11:04.261Z,16.48
2022-07-27T23:14:20.971Z,16.51
2022-07-27T23:17:31.599Z,16.45
2022-07-27T23:20:37.831Z,16.45
2022-07-27T23:23:51.008Z,16.52
2022-07-27T23:26:59.853Z,16.51
2022-07-27T23:30:11.461Z,16.44
2022-07-27T23:33:21.642Z,16.39
2022-07-27T23:36:27.371Z,16.43
2022-07-27T23:39:33.021Z,16.44
2022-07-27T23:42:38.590Z,16.43
2022-07-27T23:45:44.161Z,16.39
2022-07-27T23:49:11.651Z,16.27
2022-07-27T23:52:26.656Z,16.17
2022-07-27T23:55:38.234Z,16.08
2022-07-27T23:58:50.038Z,15.92
